createdAt,value
2022-10-20T00:02:08.033Z,5.58
2022-10-20T00:04:36.025Z,5.30
2022-10-20T00:07:03.998Z,5.25
2022-10-20T00:09:41.277Z,5.24
2022-10-20T00:12:08.332Z,5.26
2022-10-20T00:14:39.418Z,5.65
2022-10-20T00:17:07.525Z,5.73
2022-10-20T00:19:34.463Z,5.90
2022-10-20T00:22:05.350Z,5.91
2022-10-20T00:24:33.348Z,6.01
2022-10-20T00:27:00.357Z,6.08
2022-10-20T00:29:28.263Z,6.14
2022-10-20T00:31:56.137Z,6.19
2022-10-20T00:34:30.289Z,6.03
2022-10-20T00:37:10.423Z,5.80
2022-10-20T00:39:38.483Z,5.89
2022-10-20T00:42:08.264Z,6.01
2022-10-20T00:44:50.779Z,6.03
2022-10-20T00:47:28.996Z,6.21
2022-10-20T00:50:03.978Z,6.18
2022-10-20T00:52:40.514Z,6.19
2022-10-20T00:55:10.246Z,6.20
2022-10-20T00:57:44.776Z,6.29
2022-10-20T01:00:16.742Z,6.35
2022-10-20T01:02:45.171Z,6.33
2022-10-20T01:05:13.282Z,6.12
2022-10-20T01:07:40.444Z,5.88
2022-10-20T01:10:10.775Z,5.97
2022-10-20T01:12:54.798Z,6.05
2022-10-20T01:15:38.863Z,6.17
2022-10-20T01:18:30.633Z,6.15
2022-10-20T01:21:22.279Z,6.04
2022-10-20T01:24:15.209Z,6.04
2022-10-20T01:27:14.501Z,6.09
2022-10-20T01:30:15.567Z,6.08
2022-10-20T01:32:54.674Z,6.10
2022-10-20T01:35:31.013Z,6.11
2022-10-20T01:38:30.872Z,6.16
2022-10-20T01:41:10.848Z,6.16
2022-10-20T01:43:41.403Z,6.10
2022-10-20T01:46:12.899Z,6.11
2022-10-20T01:48:40.886Z,6.08
2022-10-20T01:51:10.202Z,6.09
2022-10-20T01:53:40.187Z,5.98
2022-10-20T01:56:18.582Z,5.99
2022-10-20T01:59:16.946Z,5.93
2022-10-20T02:02:12.149Z,5.93
2022-10-20T02:05:02.079Z,5.70
2022-10-20T02:07:31.862Z,5.54
2022-10-20T02:10:22.267Z,5.55
2022-10-20T02:12:59.267Z,5.44
2022-10-20T02:15:31.185Z,5.30
2022-10-20T02:18:03.719Z,5.09
2022-10-20T02:20:32.467Z,5.09
2022-10-20T02:23:03.105Z,5.06
2022-10-20T02:25:31.273Z,4.97
2022-10-20T02:28:02.634Z,4.90
2022-10-20T02:30:31.763Z,4.87
2022-10-20T02:32:58.764Z,4.86
2022-10-20T02:35:33.240Z,4.88
2022-10-20T02:38:01.905Z,4.91
2022-10-20T02:40:30.647Z,4.88
2022-10-20T02:42:57.623Z,4.81
2022-10-20T02:45:25.724Z,4.96
2022-10-20T02:47:53.788Z,4.82
2022-10-20T02:50:27.027Z,4.51
2022-10-20T02:52:54.113Z,4.22
2022-10-20T02:55:26.057Z,4.14
2022-10-20T02:57:54.306Z,4.01
2022-10-20T03:00:23.731Z,3.81
2022-10-20T03:02:51.667Z,3.86
2022-10-20T03:05:19.782Z,4.07
2022-10-20T03:07:46.779Z,4.03
2022-10-20T03:10:13.662Z,4.16
2022-10-20T03:12:40.664Z,4.21
2022-10-20T03:15:07.883Z,4.05
2022-10-20T03:17:36.327Z,3.93
2022-10-20T03:20:12.024Z,3.88
2022-10-20T03:22:42.027Z,3.92
2022-10-20T03:25:09.126Z,3.93
2022-10-20T03:27:37.391Z,3.93
2022-10-20T03:30:06.245Z,3.97
2022-10-20T03:32:33.432Z,3.68
2022-10-20T03:35:00.556Z,3.65
2022-10-20T03:37:28.597Z,3.50
2022-10-20T03:39:57.532Z,3.08
2022-10-20T03:42:24.577Z,2.93
2022-10-20T03:44:51.682Z,2.71
2022-10-20T03:47:19.020Z,2.84
2022-10-20T03:49:47.022Z,2.64
2022-10-20T03:52:15.037Z,2.55
2022-10-20T03:54:42.037Z,2.50
2022-10-20T03:57:10.290Z,2.36
2022-10-20T03:59:38.208Z,2.25
2022-10-20T04:02:06.298Z,2.45
2022-10-20T04:04:33.462Z,2.41
2022-10-20T04:07:00.428Z,2.68
2022-10-20T04:09:28.371Z,2.61
2022-10-20T04:11:55.353Z,2.63
2022-10-20T04:14:26.314Z,2.50
2022-10-20T04:17:00.497Z,2.51
2022-10-20T04:19:28.463Z,2.56
2022-10-20T04:21:55.423Z,2.62
2022-10-20T04:24:23.338Z,2.69
2022-10-20T04:29:24.587Z,2.67
2022-10-20T04:31:51.649Z,2.72
2022-10-20T04:34:18.677Z,2.66
2022-10-20T04:36:45.710Z,2.77
2022-10-20T04:39:13.723Z,2.67
2022-10-20T04:41:40.569Z,2.60
2022-10-20T04:44:07.606Z,2.71
2022-10-20T04:46:34.624Z,2.66
2022-10-20T04:49:01.642Z,2.60
2022-10-20T04:51:28.589Z,2.55
2022-10-20T04:53:55.628Z,2.53
2022-10-20T04:56:23.385Z,2.38
2022-10-20T04:58:58.384Z,2.39
2022-10-20T05:01:27.866Z,2.42
2022-10-20T05:03:55.389Z,2.41
2022-10-20T05:06:27.824Z,2.41
2022-10-20T05:08:58.120Z,2.37
2022-10-20T05:11:27.327Z,2.51
2022-10-20T05:13:54.929Z,2.32
2022-10-20T05:16:21.976Z,2.31
2022-10-20T05:18:49.452Z,2.21
2022-10-20T05:21:19.778Z,2.05
2022-10-20T05:23:47.089Z,2.06
2022-10-20T05:26:19.004Z,2.06
2022-10-20T05:28:49.697Z,2.07
2022-10-20T05:31:19.026Z,1.94
2022-10-20T05:33:48.456Z,1.91
2022-10-20T05:36:21.561Z,1.96
2022-10-20T05:38:52.397Z,1.83
2022-10-20T05:41:25.294Z,1.91
2022-10-20T05:43:54.507Z,2.09
2022-10-20T05:46:21.530Z,2.13
2022-10-20T05:48:48.649Z,2.20
2022-10-20T05:54:03.848Z,2.27
2022-10-20T05:56:32.083Z,2.29
2022-10-20T05:58:59.473Z,2.33
2022-10-20T06:01:39.359Z,2.41
2022-10-20T06:04:08.972Z,2.43
2022-10-20T06:06:36.504Z,2.49
2022-10-20T06:09:07.049Z,2.49
2022-10-20T06:11:38.376Z,2.52
2022-10-20T06:14:06.921Z,2.56
2022-10-20T06:16:34.465Z,2.65
2022-10-20T06:19:01.743Z,2.75
2022-10-20T06:21:31.646Z,2.88
2022-10-20T06:24:00.338Z,2.98
2022-10-20T06:26:36.757Z,3.13
2022-10-20T06:29:06.288Z,3.19
2022-10-20T06:31:41.523Z,3.33
2022-10-20T06:34:17.360Z,3.42
2022-10-20T06:36:44.916Z,3.34
2022-10-20T06:39:14.780Z,3.40
2022-10-20T06:41:42.466Z,3.33
2022-10-20T06:44:09.615Z,3.36
2022-10-20T06:46:37.429Z,3.54
2022-10-20T06:49:07.003Z,3.85
2022-10-20T06:51:35.489Z,3.87
2022-10-20T06:54:02.775Z,3.91
2022-10-20T06:56:32.816Z,4.05
2022-10-20T06:59:01.188Z,4.13
2022-10-20T07:01:30.919Z,4.50
2022-10-20T07:04:01.559Z,4.71
2022-10-20T07:06:31.746Z,4.89
2022-10-20T07:08:59.700Z,5.04
2022-10-20T07:11:29.411Z,5.21
2022-10-20T07:14:02.106Z,5.46
2022-10-20T07:16:32.785Z,5.55
2022-10-20T07:19:01.544Z,5.72
2022-10-20T07:21:32.656Z,5.76
2022-10-20T07:24:05.423Z,5.87
2022-10-20T07:26:34.879Z,6.05
2022-10-20T07:29:03.317Z,6.18
2022-10-20T07:31:38.765Z,6.25
2022-10-20T07:34:23.711Z,6.33
2022-10-20T07:36:51.647Z,6.39
2022-10-20T07:39:18.799Z,6.45
2022-10-20T07:41:47.578Z,6.56
2022-10-20T07:44:15.068Z,6.67
2022-10-20T07:46:42.182Z,6.80
2022-10-20T07:49:43.080Z,6.90
2022-10-20T07:51:57.239Z,6.99
2022-10-20T07:54:24.187Z,7.12
2022-10-20T07:56:51.058Z,7.18
2022-10-20T07:59:18.111Z,7.29
2022-10-20T08:01:45.302Z,7.42
2022-10-20T08:04:12.320Z,7.50
2022-10-20T08:06:39.681Z,7.51
2022-10-20T08:09:07.701Z,7.49
2022-10-20T08:11:35.265Z,7.62
2022-10-20T08:14:02.383Z,7.67
2022-10-20T08:16:31.461Z,7.70
2022-10-20T08:18:58.496Z,7.75
2022-10-20T08:21:26.435Z,7.91
2022-10-20T08:23:53.412Z,7.97
2022-10-20T08:26:25.919Z,8.13
2022-10-20T08:28:54.383Z,8.19
2022-10-20T08:31:22.539Z,8.22
2022-10-20T08:33:52.863Z,8.18
2022-10-20T08:36:21.340Z,8.29
2022-10-20T08:38:49.030Z,8.52
2022-10-20T08:41:22.459Z,8.62
2022-10-20T08:43:52.277Z,8.81
2022-10-20T08:46:21.534Z,9.14
2022-10-20T08:48:49.421Z,9.45
2022-10-20T08:51:22.707Z,9.92
2022-10-20T08:53:52.343Z,10.40
2022-10-20T08:56:27.402Z,10.79
2022-10-20T08:58:54.484Z,12.05
2022-10-20T09:01:31.073Z,12.31
2022-10-20T09:04:04.794Z,13.39
2022-10-20T09:06:31.639Z,13.61
2022-10-20T09:09:00.988Z,12.99
2022-10-20T09:11:36.895Z,14.32
2022-10-20T09:14:04.327Z,13.90
2022-10-20T09:16:58.741Z,13.19
2022-10-20T09:19:27.446Z,13.01
2022-10-20T09:21:59.034Z,12.98
2022-10-20T09:24:30.376Z,13.22
2022-10-20T09:27:16.128Z,13.42
2022-10-20T09:29:43.176Z,12.73
2022-10-20T09:32:46.429Z,12.87
2022-10-20T09:35:22.291Z,13.38
2022-10-20T09:38:16.914Z,13.31
2022-10-20T09:41:08.433Z,13.24
2022-10-20T09:43:38.746Z,13.58
2022-10-20T09:46:09.798Z,14.48
2022-10-20T09:48:48.054Z,13.18
2022-10-20T09:51:20.435Z,14.84
2022-10-20T09:54:08.459Z,15.22
2022-10-20T09:56:39.295Z,15.92
2022-10-20T09:59:32.944Z,16.59
2022-10-20T10:02:23.677Z,18.21
2022-10-20T10:04:52.828Z,18.92
2022-10-20T10:07:22.803Z,17.84
2022-10-20T10:10:08.494Z,13.96
2022-10-20T10:12:36.427Z,13.68
2022-10-20T10:15:29.216Z,13.42
2022-10-20T10:17:58.302Z,13.47
2022-10-20T10:20:39.127Z,15.55
2022-10-20T10:23:20.219Z,16.77
2022-10-20T10:25:48.169Z,17.79
2022-10-20T10:28:37.121Z,18.24
2022-10-20T10:31:18.881Z,17.56
2022-10-20T10:33:47.438Z,15.93
2022-10-20T10:36:37.600Z,15.92
2022-10-20T10:39:07.791Z,15.69
2022-10-20T10:42:04.348Z,17.68
2022-10-20T10:44:55.749Z,18.80
2022-10-20T10:48:03.641Z,18.77
2022-10-20T10:51:03.574Z,18.52
2022-10-20T10:53:39.388Z,17.60
2022-10-20T10:56:31.209Z,15.76
2022-10-20T10:59:12.933Z,15.26
2022-10-20T11:02:01.233Z,15.97
2022-10-20T11:04:44.068Z,16.11
2022-10-20T11:07:40.331Z,16.99
2022-10-20T11:10:22.366Z,18.73
2022-10-20T11:12:49.385Z,19.59
2022-10-20T11:15:36.587Z,20.83
2022-10-20T11:18:54.964Z,21.88
2022-10-20T11:21:34.881Z,19.20
2022-10-20T11:24:18.045Z,20.58
2022-10-20T11:26:48.025Z,21.36
2022-10-20T11:29:28.667Z,21.71
2022-10-20T11:32:14.525Z,21.91
2022-10-20T11:34:53.148Z,21.70
2022-10-20T11:37:30.589Z,21.80
2022-10-20T11:40:08.748Z,22.36
2022-10-20T11:42:42.197Z,21.59
2022-10-20T11:45:45.433Z,21.49
2022-10-20T11:48:28.250Z,19.28
2022-10-20T11:51:10.534Z,19.96
2022-10-20T11:54:07.922Z,18.67
2022-10-20T11:57:02.789Z,19.13
2022-10-20T11:59:59.422Z,18.03
2022-10-20T12:02:58.822Z,19.34
2022-10-20T12:05:53.784Z,20.08
2022-10-20T12:08:48.671Z,21.69
2022-10-20T12:11:32.144Z,22.96
2022-10-20T12:14:14.387Z,23.38
2022-10-20T12:16:58.465Z,23.47
2022-10-20T12:19:27.402Z,23.47
2022-10-20T12:22:00.583Z,24.13
2022-10-20T12:24:40.765Z,22.84
2022-10-20T12:27:07.735Z,21.52
2022-10-20T12:29:34.633Z,21.06
2022-10-20T12:32:29.541Z,20.44
2022-10-20T12:34:59.394Z,20.70
2022-10-20T12:37:34.969Z,19.70
2022-10-20T12:40:08.339Z,19.33
2022-10-20T12:42:46.586Z,20.60
2022-10-20T12:45:19.317Z,21.51
2022-10-20T12:48:07.197Z,20.85
2022-10-20T12:50:41.702Z,20.18
2022-10-20T12:53:13.172Z,19.86
2022-10-20T12:55:42.219Z,20.93
2022-10-20T12:58:18.588Z,20.04
2022-10-20T13:00:49.787Z,20.57
2022-10-20T13:03:43.288Z,20.37
2022-10-20T13:06:31.119Z,20.32
2022-10-20T13:09:04.043Z,20.52
2022-10-20T13:11:39.714Z,20.32
2022-10-20T13:14:29.357Z,20.60
2022-10-20T13:17:06.860Z,21.16
2022-10-20T13:20:15.855Z,21.01
2022-10-20T13:22:47.370Z,22.22
2022-10-20T13:25:38.077Z,23.63
2022-10-20T13:28:04.912Z,24.53
2022-10-20T13:30:33.820Z,24.78
2022-10-20T13:33:33.771Z,25.22
2022-10-20T13:36:29.593Z,25.33
2022-10-20T13:39:05.749Z,25.19
2022-10-20T13:42:26.311Z,24.75
2022-10-20T13:45:02.316Z,23.23
2022-10-20T13:47:50.484Z,23.53
2022-10-20T13:50:22.778Z,22.14
2022-10-20T13:52:58.032Z,20.41
2022-10-20T13:55:31.069Z,20.30
2022-10-20T13:58:07.839Z,21.50
2022-10-20T14:00:36.484Z,21.05
2022-10-20T14:03:15.468Z,21.47
2022-10-20T14:05:42.575Z,21.54
2022-10-20T14:08:17.823Z,19.70
2022-10-20T14:10:57.519Z,19.23
2022-10-20T14:13:34.827Z,20.14
2022-10-20T14:16:06.158Z,21.25
2022-10-20T14:18:39.820Z,21.36
2022-10-20T14:21:19.699Z,22.00
2022-10-20T14:23:49.498Z,21.91
2022-10-20T14:26:21.833Z,21.16
2022-10-20T14:28:54.105Z,21.22
2022-10-20T14:31:23.768Z,21.89
2022-10-20T14:33:52.714Z,21.45
2022-10-20T14:36:23.452Z,21.35
2022-10-20T14:38:54.223Z,20.80
2022-10-20T14:41:30.565Z,21.01
2022-10-20T14:44:12.193Z,20.58
2022-10-20T14:46:48.343Z,20.54
2022-10-20T14:49:38.906Z,20.98
2022-10-20T14:52:29.188Z,21.51
2022-10-20T14:54:56.310Z,21.52
2022-10-20T14:57:31.161Z,21.79
2022-10-20T15:00:22.527Z,21.42
2022-10-20T15:02:56.719Z,20.81
2022-10-20T15:05:42.107Z,21.04
2022-10-20T15:08:10.842Z,21.19
2022-10-20T15:10:39.218Z,21.07
2022-10-20T15:13:23.644Z,20.70
2022-10-20T15:15:54.188Z,19.86
2022-10-20T15:18:24.335Z,19.57
2022-10-20T15:20:53.954Z,19.05
2022-10-20T15:23:28.938Z,18.62
2022-10-20T15:26:12.484Z,17.65
2022-10-20T15:28:43.884Z,16.94
2022-10-20T15:31:22.971Z,16.26
2022-10-20T15:33:52.245Z,15.95
2022-10-20T15:36:26.920Z,15.32
2022-10-20T15:38:54.696Z,15.09
2022-10-20T15:41:30.914Z,14.60
2022-10-20T15:44:05.519Z,14.38
2022-10-20T15:46:34.814Z,14.08
2022-10-20T15:49:01.974Z,13.78
2022-10-20T15:51:34.452Z,13.51
2022-10-20T15:54:04.778Z,13.25
2022-10-20T15:56:33.373Z,13.08
2022-10-20T15:59:00.422Z,12.96
2022-10-20T16:01:28.439Z,12.69
2022-10-20T16:03:56.562Z,12.62
2022-10-20T16:06:23.578Z,12.45
2022-10-20T16:08:51.859Z,12.42
2022-10-20T16:11:23.791Z,12.33
2022-10-20T16:13:51.993Z,12.13
2022-10-20T16:16:20.009Z,11.93
2022-10-20T16:18:57.065Z,11.87
2022-10-20T16:21:25.069Z,11.69
2022-10-20T16:23:53.209Z,11.60
2022-10-20T16:26:21.683Z,11.55
2022-10-20T16:28:49.018Z,11.07
2022-10-20T16:31:24.322Z,10.96
2022-10-20T16:33:52.086Z,10.87
2022-10-20T16:36:21.944Z,10.76
2022-10-20T16:38:55.694Z,10.69
2022-10-20T16:41:23.198Z,10.59
2022-10-20T16:43:50.833Z,10.59
2022-10-20T16:46:23.813Z,10.43
2022-10-20T16:48:57.516Z,10.29
2022-10-20T16:51:26.413Z,10.13
2022-10-20T16:54:03.097Z,10.12
2022-10-20T16:56:31.835Z,10.10
2022-10-20T16:58:59.502Z,9.84
2022-10-20T17:01:26.712Z,9.88
2022-10-20T17:03:54.304Z,9.68
2022-10-20T17:06:24.762Z,9.49
2022-10-20T17:08:54.666Z,9.32
2022-10-20T17:11:25.143Z,9.51
2022-10-20T17:13:53.959Z,9.53
2022-10-20T17:16:28.445Z,9.49
2022-10-20T17:19:01.960Z,9.56
2022-10-20T17:21:31.600Z,9.46
2022-10-20T17:23:58.918Z,9.45
2022-10-20T17:26:30.693Z,9.40
2022-10-20T17:29:00.435Z,9.33
2022-10-20T17:31:28.616Z,9.27
2022-10-20T17:33:57.865Z,9.16
2022-10-20T17:36:27.379Z,9.03
2022-10-20T17:39:06.792Z,8.92
2022-10-20T17:41:35.582Z,8.80
2022-10-20T17:44:05.246Z,8.61
2022-10-20T17:46:36.908Z,8.49
2022-10-20T17:49:06.297Z,8.41
2022-10-20T17:51:35.065Z,8.41
2022-10-20T17:54:03.230Z,8.44
2022-10-20T17:56:36.162Z,8.33
2022-10-20T18:01:41.312Z,8.36
2022-10-20T18:04:17.016Z,8.28
2022-10-20T18:06:46.067Z,8.23
2022-10-20T18:09:16.662Z,8.16
2022-10-20T18:11:47.903Z,8.14
2022-10-20T18:14:15.782Z,8.07
2022-10-20T18:16:43.694Z,8.05
2022-10-20T18:19:18.938Z,7.95
2022-10-20T18:21:47.864Z,7.98
2022-10-20T18:24:16.736Z,7.93
2022-10-20T18:26:44.703Z,7.97
2022-10-20T18:29:13.562Z,7.90
2022-10-20T18:31:45.834Z,7.92
2022-10-20T18:34:18.792Z,7.85
2022-10-20T18:36:46.344Z,7.75
2022-10-20T18:39:14.883Z,7.79
2022-10-20T18:41:43.833Z,7.68
2022-10-20T18:44:17.943Z,7.72
2022-10-20T18:46:47.036Z,7.73
2022-10-20T18:49:19.709Z,7.61
2022-10-20T18:51:48.443Z,7.60
2022-10-20T18:54:20.035Z,7.58
2022-10-20T18:56:48.186Z,7.57
2022-10-20T18:59:16.615Z,7.50
2022-10-20T19:01:49.034Z,7.43
2022-10-20T19:04:17.669Z,7.41
2022-10-20T19:06:47.673Z,7.23
2022-10-20T19:09:18.310Z,7.24
2022-10-20T19:11:46.714Z,7.23
2022-10-20T19:14:15.244Z,7.12
2022-10-20T19:16:46.867Z,7.15
2022-10-20T19:19:14.413Z,7.19
2022-10-20T19:21:43.035Z,7.17
2022-10-20T19:24:19.245Z,7.08
2022-10-20T19:27:02.007Z,7.06
2022-10-20T19:29:37.744Z,6.91
2022-10-20T19:32:06.608Z,6.97
2022-10-20T19:34:39.936Z,6.90
2022-10-20T19:37:08.735Z,6.82
2022-10-20T19:39:43.382Z,6.79
2022-10-20T19:42:14.334Z,6.77
2022-10-20T19:44:44.265Z,6.76
2022-10-20T19:47:12.365Z,6.76
2022-10-20T19:49:46.162Z,6.68
2022-10-20T19:52:14.316Z,6.60
2022-10-20T19:54:43.563Z,6.65
2022-10-20T19:57:11.079Z,6.57
2022-10-20T19:59:40.301Z,6.56
2022-10-20T20:02:08.411Z,6.50
2022-10-20T20:04:35.697Z,6.53
2022-10-20T20:07:03.246Z,6.54
2022-10-20T20:09:42.792Z,6.55
2022-10-20T20:12:12.458Z,6.43
2022-10-20T20:14:40.923Z,6.44
2022-10-20T20:17:13.649Z,6.47
2022-10-20T20:19:41.947Z,6.50
2022-10-20T20:22:09.579Z,6.41
2022-10-20T20:24:39.315Z,6.42
2022-10-20T20:27:06.360Z,6.36
2022-10-20T20:29:35.214Z,6.27
2022-10-20T20:32:05.447Z,6.27
2022-10-20T20:34:34.434Z,6.17
2022-10-20T20:37:03.718Z,6.12
2022-10-20T20:39:31.875Z,6.16
2022-10-20T20:41:59.693Z,6.13
2022-10-20T20:44:27.758Z,6.12
2022-10-20T20:46:55.835Z,6.02
2022-10-20T20:49:23.848Z,6.01
2022-10-20T20:51:50.902Z,6.04
2022-10-20T20:54:24.321Z,6.03
2022-10-20T20:56:53.517Z,6.01
2022-10-20T20:59:20.503Z,5.93
2022-10-20T21:01:49.635Z,5.92
2022-10-20T21:04:17.562Z,5.96
2022-10-20T21:07:01.763Z,5.89
2022-10-20T21:09:29.678Z,5.88
2022-10-20T21:11:57.769Z,5.84
2022-10-20T21:14:26.034Z,5.80
2022-10-20T21:16:55.097Z,5.79
2022-10-20T21:19:22.365Z,5.80
2022-10-20T21:21:50.958Z,5.81
2022-10-20T21:24:20.227Z,5.81
2022-10-20T21:26:48.982Z,5.78
2022-10-20T21:29:17.496Z,5.83
2022-10-20T21:31:46.427Z,5.81
2022-10-20T21:34:13.526Z,5.86
2022-10-20T21:36:41.622Z,5.91
2022-10-20T21:39:11.827Z,5.94
2022-10-20T21:41:43.395Z,6.04
2022-10-20T21:44:13.958Z,6.03
2022-10-20T21:46:47.699Z,6.07
2022-10-20T21:49:17.979Z,6.07
2022-10-20T21:51:50.123Z,6.14
2022-10-20T21:54:19.392Z,6.15
2022-10-20T21:56:50.007Z,6.16
2022-10-20T21:59:27.360Z,6.08
2022-10-20T22:01:58.006Z,6.15
2022-10-20T22:04:28.358Z,6.13
2022-10-20T22:06:56.653Z,6.16
2022-10-20T22:09:24.037Z,6.13
2022-10-20T22:11:56.273Z,6.11
2022-10-20T22:14:23.480Z,6.12
2022-10-20T22:16:51.117Z,6.14
2022-10-20T22:19:21.959Z,6.10
2022-10-20T22:21:52.465Z,6.02
2022-10-20T22:24:20.512Z,6.10
2022-10-20T22:26:51.809Z,6.03
2022-10-20T22:29:20.942Z,6.04
2022-10-20T22:31:50.100Z,6.02
2022-10-20T22:34:17.457Z,6.03
2022-10-20T22:36:46.476Z,6.06
2022-10-20T22:39:13.964Z,6.06
2022-10-20T22:41:42.934Z,6.03
2022-10-20T22:44:10.289Z,6.05
2022-10-20T22:46:37.449Z,6.07
2022-10-20T22:49:12.241Z,6.04
2022-10-20T22:51:45.084Z,5.95
2022-10-20T22:54:18.077Z,5.99
2022-10-20T22:56:52.996Z,6.04
2022-10-20T22:59:20.985Z,6.05
2022-10-20T23:01:48.052Z,6.08
2022-10-20T23:04:19.091Z,6.10
2022-10-20T23:06:47.080Z,6.10
2022-10-20T23:09:14.140Z,6.08
2022-10-20T23:11:43.177Z,6.11
2022-10-20T23:21:52.185Z,6.27
2022-10-20T23:24:21.257Z,6.22
2022-10-20T23:26:48.477Z,6.27
2022-10-20T23:29:15.456Z,6.33
2022-10-20T23:31:44.434Z,6.38
2022-10-20T23:34:12.475Z,6.37
2022-10-20T23:36:39.450Z,6.46
2022-10-20T23:39:07.480Z,6.40
2022-10-20T23:41:34.464Z,6.42
2022-10-20T23:44:02.483Z,6.45
2022-10-20T23:46:32.772Z,6.44
2022-10-20T23:49:02.752Z,6.48
2022-10-20T23:51:30.002Z,6.48
2022-10-20T23:53:58.115Z,6.52
2022-10-20T23:56:25.132Z,6.56
2022-10-20T23:58:52.141Z,6.57
